Time;durP1;ratioP1;P1;durP2;ratioP2;P2;SDS_P1;SDS_P2;PMS_P1;PMS_P2;Temp;Humidity;BMP_temperature;BMP_pressure;BME280_temperature;BME280_humidity;BME280_pressure;Samples;Min_cycle;Max_cycle;Signal;HPM_P1;HPM_P2
2022/01/16 00:06:10;;;;;;;;;18.00;16.75;;;;;8.92;45.10;101936.13;146600;671;46017;-71
2022/01/16 00:09:03;;;;;;;;;22.25;19.75;;;;;8.91;45.10;101955.03;146600;614;46008;-70
2022/01/16 00:11:58;;;;;;;;;22.25;17.75;;;;;8.93;44.84;101981.00;146603;646;46016;-71
2022/01/16 00:14:51;;;;;;;;;27.00;21.00;;;;;8.97;45.39;102040.88;146603;583;46008;-71
2022/01/16 00:17:54;;;;;;;;;22.50;18.00;;;;;9.04;44.32;102070.72;146601;579;46016;-71
2022/01/16 00:20:46;;;;;;;;;20.25;18.25;;;;;9.11;45.00;102020.34;146605;578;46020;-71
2022/01/16 00:23:39;;;;;;;;;18.50;14.75;;;;;9.18;44.24;101935.50;146603;569;46016;-71
2022/01/16 00:26:32;;;;;;;;;24.25;23.75;;;;;9.22;44.22;101840.91;146605;564;45913;-70
2022/01/16 00:29:24;;;;;;;;;21.25;19.75;;;;;9.26;42.98;101736.84;146602;620;46011;-71
2022/01/16 00:32:16;;;;;;;;;17.75;15.50;;;;;9.27;42.54;101746.38;146604;614;46020;-70
2022/01/16 00:35:11;;;;;;;;;22.75;21.50;;;;;9.30;43.08;101740.53;146604;570;46017;-71
2022/01/16 00:38:03;;;;;;;;;20.50;19.75;;;;;9.29;41.58;101733.56;146603;651;46012;-70
2022/01/16 00:40:55;;;;;;;;;27.50;25.00;;;;;9.30;41.76;101761.25;146599;593;46016;-72
2022/01/16 00:43:48;;;;;;;;;34.00;26.50;;;;;9.26;43.02;101804.13;146602;633;46021;-71
2022/01/16 00:46:40;;;;;;;;;26.00;23.75;;;;;9.21;43.85;101832.22;146600;565;46016;-71
2022/01/16 00:49:34;;;;;;;;;18.00;16.00;;;;;9.15;42.73;101859.34;146603;565;46020;-69
2022/01/16 00:52:26;;;;;;;;;5.75;5.50;;;;;9.11;42.37;101888.38;146609;644;46016;-69
2022/01/16 00:55:18;;;;;;;;;29.00;25.25;;;;;9.04;42.24;101874.06;146606;588;46020;-69
2022/01/16 00:58:11;;;;;;;;;27.25;21.25;;;;;9.00;43.21;101836.72;146603;564;45911;-73
2022/01/16 01:01:03;;;;;;;;;24.25;19.00;;;;;9.00;43.78;101831.56;146600;637;46020;-72
2022/01/16 01:03:57;;;;;;;;;18.25;18.25;;;;;9.00;43.12;101836.72;146607;564;45016;-72
2022/01/16 01:06:51;;;;;;;;;17.25;15.00;;;;;8.99;42.74;101834.91;146606;615;46008;-74
2022/01/16 01:09:43;;;;;;;;;17.75;15.25;;;;;8.97;43.06;101822.63;146608;590;47012;-77
2022/01/16 01:12:52;;;;;;;;;26.25;19.75;;;;;8.98;42.65;101847.75;146610;569;46021;-72
2022/01/16 01:15:48;;;;;;;;;34.00;30.25;;;;;8.97;43.35;101866.63;146605;579;46016;-72
2022/01/16 01:18:40;;;;;;;;;26.25;21.75;;;;;8.97;43.64;101872.72;146609;602;45020;-71
2022/01/16 01:21:33;;;;;;;;;21.00;20.75;;;;;8.95;44.28;101889.78;146606;625;46016;-72
2022/01/16 01:24:26;;;;;;;;;28.50;24.75;;;;;8.94;44.43;101907.78;146608;582;46020;-72
2022/01/16 01:27:23;;;;;;;;;24.00;21.50;;;;;8.89;44.16;101912.59;146608;612;47012;-73
2022/01/16 01:30:18;;;;;;;;;23.50;22.25;;;;;8.84;44.50;101915.63;146609;595;46008;-72
2022/01/16 01:33:13;;;;;;;;;33.75;28.50;;;;;8.78;45.30;101909.22;146605;621;46016;-75
2022/01/16 01:36:05;;;;;;;;;47.75;38.25;;;;;8.78;45.25;101910.88;146609;776;46021;-71
2022/01/16 01:38:57;;;;;;;;;30.25;29.00;;;;;8.75;45.16;101908.03;146604;570;46016;-74
2022/01/16 01:41:54;;;;;;;;;41.00;35.50;;;;;8.72;45.81;101906.16;146604;674;47008;-74
2022/01/16 01:51:08;;;;;;;;;16.25;16.25;;;;;8.62;46.13;101913.94;146609;590;46010;-73
2022/01/16 01:54:01;;;;;;;;;25.75;23.75;;;;;8.56;46.08;101904.03;146606;600;46020;-73
2022/01/16 01:56:55;;;;;;;;;48.25;36.25;;;;;8.52;45.75;101906.28;146604;682;46016;-71
2022/01/16 01:59:47;;;;;;;;;24.50;22.25;;;;;8.43;46.17;101915.88;146609;588;47008;-73
2022/01/16 02:02:55;;;;;;;;;24.25;21.75;;;;;8.33;46.10;101916.81;146603;569;46010;-72
2022/01/16 02:05:48;;;;;;;;;27.75;23.00;;;;;8.27;46.77;101911.16;146601;590;46008;-72
2022/01/16 02:08:41;;;;;;;;;29.75;26.25;;;;;8.24;47.02;101914.38;146600;586;46012;-74
2022/01/16 02:11:34;;;;;;;;;23.50;20.25;;;;;8.22;46.92;101905.59;146602;619;46009;-74
2022/01/16 02:14:46;;;;;;;;;24.25;21.50;;;;;8.18;47.31;101903.56;146600;591;46010;-72
2022/01/16 02:31:02;;;;;;;;;43.50;35.00;;;;;7.85;49.07;101900.09;146602;570;46008;-70
2022/01/16 02:37:11;;;;;;;;;25.75;23.50;;;;;7.74;50.36;101915.50;146599;585;46022;-72
2022/01/16 02:40:11;;;;;;;;;33.00;26.25;;;;;7.64;49.99;101906.09;146601;601;46016;-73
2022/01/16 02:43:05;;;;;;;;;28.25;24.75;;;;;7.46;50.95;101910.66;146602;649;46008;-73
2022/01/16 02:46:35;;;;;;;;;26.00;23.25;;;;;7.19;51.77;101896.34;146597;583;46016;-72
2022/01/16 02:49:20;;;;;;;;;19.75;17.25;;;;;6.91;51.69;101906.94;146603;599;46012;-73
2022/01/16 02:52:16;;;;;;;;;27.25;23.50;;;;;6.76;51.80;101908.22;146598;583;46016;-73
2022/01/16 02:55:13;;;;;;;;;43.50;36.00;;;;;6.66;52.24;101895.31;146600;576;46009;-72
2022/01/16 02:58:05;;;;;;;;;36.25;32.50;;;;;6.71;53.48;101909.50;146598;564;46012;-72
2022/01/16 03:00:57;;;;;;;;;33.75;29.75;;;;;6.78;53.53;101916.97;146600;631;46008;-72
2022/01/16 03:03:50;;;;;;;;;30.25;25.50;;;;;6.87;51.98;101927.19;146599;604;46011;-73
2022/01/16 03:06:41;;;;;;;;;43.75;35.75;;;;;6.98;52.63;101931.59;146601;580;46008;-72
2022/01/16 03:10:03;;;;;;;;;30.00;26.50;;;;;7.12;51.79;101919.84;146599;569;46010;-76
2022/01/16 03:12:48;;;;;;;;;28.50;24.50;;;;;7.21;51.36;101917.13;146602;615;46911;-74
2022/01/16 03:15:40;;;;;;;;;26.75;25.00;;;;;7.25;52.49;101930.41;146599;585;46016;-74
2022/01/16 03:21:54;;;;;;;;;21.00;18.00;;;;;7.15;53.30;101928.72;146599;660;46016;-74
2022/01/16 03:24:48;;;;;;;;;25.50;19.50;;;;;7.07;53.81;101926.28;146603;595;46013;-74
2022/01/16 03:27:40;;;;;;;;;25.75;22.75;;;;;6.97;53.75;101936.59;146598;570;46017;-74
2022/01/16 03:30:33;;;;;;;;;31.00;26.50;;;;;6.91;53.49;101940.44;146602;693;46020;-77
2022/01/16 03:33:25;;;;;;;;;32.00;28.00;;;;;6.93;53.62;101946.66;146600;596;46017;-72
2022/01/16 03:36:18;;;;;;;;;29.00;24.25;;;;;7.00;53.96;101950.66;146601;581;46020;-71
2022/01/16 03:39:10;;;;;;;;;29.25;26.50;;;;;7.08;53.88;101959.06;146598;564;46010;-72
2022/01/16 03:42:02;;;;;;;;;30.00;25.00;;;;;7.10;53.97;101960.06;146602;647;46008;-72
2022/01/16 03:44:54;;;;;;;;;33.25;30.25;;;;;7.11;52.94;101969.63;146600;633;46911;-72
2022/01/16 03:47:47;;;;;;;;;35.75;31.00;;;;;7.08;53.38;101970.25;146601;611;46008;-71
2022/01/16 03:50:39;;;;;;;;;26.00;25.50;;;;;7.07;54.11;101977.84;146599;583;45911;-71
2022/01/16 03:53:32;;;;;;;;;22.25;18.25;;;;;7.06;54.54;101978.63;146601;581;46020;-74
2022/01/16 03:56:24;;;;;;;;;20.25;17.50;;;;;7.03;54.75;101968.06;146602;577;46016;-76
2022/01/16 03:59:16;;;;;;;;;22.00;17.75;;;;;6.98;55.25;101989.97;146604;663;45030;-72
2022/01/16 04:02:09;;;;;;;;;22.25;18.00;;;;;6.91;54.67;101984.28;146605;565;46016;-72
2022/01/16 04:05:01;;;;;;;;;19.50;16.00;;;;;6.90;55.84;101985.06;146604;599;46020;-69
2022/01/16 04:07:53;;;;;;;;;19.50;17.00;;;;;6.84;55.23;102000.00;146601;614;46016;-70
2022/01/16 04:10:46;;;;;;;;;18.50;16.75;;;;;6.78;55.32;101994.31;146609;576;45021;-71
2022/01/16 04:13:47;;;;;;;;;22.00;18.25;;;;;6.77;56.43;102002.84;146603;620;46010;-71
2022/01/16 04:16:41;;;;;;;;;16.25;14.75;;;;;6.77;56.01;102010.56;146606;574;46021;-72
2022/01/16 04:19:33;;;;;;;;;16.00;15.50;;;;;6.74;56.92;102005.12;146604;637;46010;-71
2022/01/16 04:22:25;;;;;;;;;16.75;13.25;;;;;6.71;56.27;102005.78;146608;673;46020;-71
2022/01/16 04:25:18;;;;;;;;;20.25;16.00;;;;;6.70;56.16;102015.97;146605;587;46016;-71
2022/01/16 04:28:10;;;;;;;;;17.25;14.50;;;;;6.74;54.87;102005.12;146609;599;46020;-71
2022/01/16 04:31:03;;;;;;;;;16.25;14.00;;;;;6.76;56.90;101998.47;146604;592;46013;-71
2022/01/16 04:33:55;;;;;;;;;17.25;15.25;;;;;6.70;56.62;101996.25;146610;572;45021;-71
2022/01/16 04:36:48;;;;;;;;;13.50;12.50;;;;;6.62;56.03;101998.91;146605;701;46016;-71
2022/01/16 04:39:48;;;;;;;;;14.75;11.75;;;;;6.58;56.11;102000.31;146611;674;46020;-73
2022/01/16 04:46:08;;;;;;;;;13.75;12.00;;;;;6.39;55.12;101994.34;146610;629;46012;-74
2022/01/16 04:49:02;;;;;;;;;15.00;12.75;;;;;6.36;55.51;101999.22;146610;609;45911;-75
2022/01/16 04:51:55;;;;;;;;;12.25;12.00;;;;;6.29;56.38;101994.28;146609;602;46008;-87
2022/01/16 04:54:47;;;;;;;;;14.00;9.75;;;;;6.25;56.01;101995.66;146612;607;46016;-72
2022/01/16 04:57:39;;;;;;;;;15.25;12.00;;;;;6.25;55.30;101986.28;146608;566;46020;-75
2022/01/16 05:00:31;;;;;;;;;12.00;12.00;;;;;6.30;56.66;101986.69;146609;564;45911;-73
2022/01/16 05:03:24;;;;;;;;;15.50;12.50;;;;;6.39;56.09;101992.66;146609;597;46008;-73
2022/01/16 05:06:17;;;;;;;;;15.00;13.00;;;;;6.47;55.62;101993.31;146605;629;46016;-74
2022/01/16 05:09:09;;;;;;;;;13.75;11.75;;;;;6.53;56.49;101996.44;146611;570;46021;-79
2022/01/16 05:12:08;;;;;;;;;12.25;9.25;;;;;6.60;55.94;101987.56;146608;586;46016;-73
2022/01/16 05:18:11;;;;;;;;;10.00;10.00;;;;;6.62;56.30;101997.22;146607;579;46010;-74
2022/01/16 05:21:04;;;;;;;;;13.50;11.75;;;;;6.61;58.01;102015.16;146613;592;45020;-72
2022/01/16 05:23:56;;;;;;;;;11.00;11.00;;;;;6.59;56.50;102014.09;146608;597;46012;-72
2022/01/16 05:26:49;;;;;;;;;24.75;23.50;;;;;6.60;57.47;102021.06;146605;604;46020;-71
2022/01/16 05:29:41;;;;;;;;;38.00;33.25;;;;;6.63;57.29;102014.50;146602;570;46911;-70
2022/01/16 05:32:33;;;;;;;;;39.25;34.00;;;;;6.69;57.29;102017.59;146601;659;46021;-72
2022/01/16 05:35:26;;;;;;;;;52.50;42.00;;;;;6.69;56.85;102021.88;146604;577;46016;-70
2022/01/16 05:38:18;;;;;;;;;55.50;43.25;;;;;6.71;57.54;102026.37;146607;620;46021;-68
2022/01/16 05:41:10;;;;;;;;;17.25;16.00;;;;;6.66;58.13;102031.91;146601;594;46016;-74
2022/01/16 05:44:02;;;;;;;;;21.50;17.25;;;;;6.61;58.17;102034.09;146608;574;46020;-72
2022/01/16 05:46:55;;;;;;;;;29.50;26.25;;;;;6.54;58.37;102034.34;146603;588;46016;-69
2022/01/16 05:49:47;;;;;;;;;16.25;14.00;;;;;6.44;56.95;102042.91;146602;595;47912;-69
2022/01/16 05:52:39;;;;;;;;;17.50;15.25;;;;;6.41;57.67;102042.63;146599;632;46011;-69
2022/01/16 05:55:36;;;;;;;;;45.75;38.00;;;;;6.42;58.50;102043.56;146603;598;46021;-71
2022/01/16 05:58:28;;;;;;;;;21.25;18.00;;;;;6.37;58.81;102053.44;146598;634;46010;-70
2022/01/16 06:01:21;;;;;;;;;19.25;16.50;;;;;6.30;58.22;102056.25;146601;631;45913;-71
2022/01/16 06:04:13;;;;;;;;;21.25;17.50;;;;;6.28;58.54;102068.06;146603;591;46016;-71
2022/01/16 06:07:06;;;;;;;;;16.00;13.50;;;;;6.27;58.28;102066.28;146610;569;46008;-72
2022/01/16 06:09:58;;;;;;;;;52.50;43.00;;;;;6.23;57.65;102070.25;146602;569;46016;-72
2022/01/16 06:12:51;;;;;;;;;28.25;27.75;;;;;6.22;58.31;102078.72;146601;635;46020;-72
2022/01/16 06:15:46;;;;;;;;;48.00;41.00;;;;;6.15;57.73;102083.19;146602;628;46017;-72
2022/01/16 06:18:38;;;;;;;;;37.25;30.75;;;;;6.11;58.96;102091.41;146602;580;46020;-72
2022/01/16 06:21:31;;;;;;;;;16.25;13.50;;;;;6.00;58.39;102095.56;146603;615;46017;-72
2022/01/16 06:24:22;;;;;;;;;13.00;12.50;;;;;5.96;58.60;102112.41;146605;665;46020;-74
2022/01/16 06:27:15;;;;;;;;;17.25;16.00;;;;;6.10;59.50;102115.34;146604;610;46911;-72
2022/01/16 06:30:09;;;;;;;;;12.00;12.00;;;;;6.62;58.51;102122.63;146607;627;46008;-72
2022/01/16 06:33:03;;;;;;;;;16.00;15.00;;;;;7.63;56.96;102128.84;146603;617;46010;-72
2022/01/16 06:35:56;;;;;;;;;17.25;13.75;;;;;8.87;53.10;102125.37;146607;589;46012;-73
2022/01/16 06:38:48;;;;;;;;;16.50;14.75;;;;;9.93;50.88;102124.19;146606;585;46010;-73
2022/01/16 06:41:41;;;;;;;;;56.75;45.75;;;;;10.95;50.79;102124.84;146605;653;46008;-70
2022/01/16 06:44:33;;;;;;;;;19.00;17.00;;;;;11.95;48.22;102136.22;146600;649;46016;-71
2022/01/16 06:47:26;;;;;;;;;22.00;21.50;;;;;12.80;46.14;102142.72;146605;605;46008;-71
2022/01/16 06:50:18;;;;;;;;;18.00;16.50;;;;;13.53;44.57;102149.13;146601;627;46010;-70
2022/01/16 06:53:10;;;;;;;;;37.00;32.25;;;;;14.07;42.67;102153.28;146604;612;46020;-70
2022/01/16 06:56:03;;;;;;;;;71.50;51.25;;;;;14.25;41.71;102160.41;146603;571;46008;-73
2022/01/16 06:58:55;;;;;;;;;36.25;28.75;;;;;14.31;42.88;102160.78;146600;627;46020;-73
2022/01/16 07:01:47;;;;;;;;;24.50;19.25;;;;;14.35;41.41;102167.06;146602;569;46016;-74
2022/01/16 07:04:40;;;;;;;;;18.25;16.00;;;;;14.24;41.37;102161.25;146606;653;46008;-84
2022/01/16 07:07:32;;;;;;;;;26.25;24.50;;;;;14.17;42.55;102162.56;146603;579;46911;-82
2022/01/16 07:10:24;;;;;;;;;35.75;31.00;;;;;14.43;42.50;102168.44;146600;580;46020;-77
2022/01/16 07:13:17;;;;;;;;;35.75;31.00;;;;;14.84;40.63;102167.34;146600;597;46016;-78
2022/01/16 07:16:09;;;;;;;;;32.75;28.50;;;;;15.18;41.70;102177.97;146603;586;46010;-76
2022/01/16 07:19:02;;;;;;;;;34.25;28.75;;;;;15.61;40.41;102177.72;146601;594;46016;-72
2022/01/16 07:21:54;;;;;;;;;34.00;29.75;;;;;15.85;38.90;102186.00;146603;570;46021;-73
2022/01/16 07:24:47;;;;;;;;;35.00;30.75;;;;;16.01;38.98;102179.84;146601;607;46012;-73
2022/01/16 07:27:39;;;;;;;;;30.25;29.00;;;;;16.13;36.75;102181.38;146606;639;45020;-69
2022/01/16 07:30:31;;;;;;;;;28.00;25.50;;;;;16.08;38.99;102181.97;146600;626;46016;-73
2022/01/16 07:33:23;;;;;;;;;32.75;30.00;;;;;16.22;39.28;102187.91;146601;565;46008;-74
2022/01/16 07:36:16;;;;;;;;;48.25;39.75;;;;;16.23;37.69;102181.84;146605;632;46017;-74
2022/01/16 07:39:08;;;;;;;;;51.00;40.50;;;;;16.00;38.42;102194.66;146608;694;46021;-74
2022/01/16 07:42:00;;;;;;;;;51.25;42.75;;;;;15.79;39.20;102199.63;146602;595;46016;-75
2022/01/16 07:44:52;;;;;;;;;60.50;47.00;;;;;15.76;38.99;102215.16;146606;588;46021;-74
2022/01/16 07:47:45;;;;;;;;;60.00;46.25;;;;;15.63;38.54;102224.03;146605;569;46012;-78
2022/01/16 07:50:38;;;;;;;;;48.75;40.75;;;;;15.35;38.62;102232.06;146608;641;46020;-72
2022/01/16 07:53:30;;;;;;;;;52.50;41.00;;;;;14.99;39.41;102239.63;146606;632;46017;-73
2022/01/16 07:56:23;;;;;;;;;56.50;44.00;;;;;14.64;40.08;102239.28;146607;730;46020;-77
2022/01/16 07:59:16;;;;;;;;;64.00;49.50;;;;;14.39;39.94;102234.28;146601;660;46911;-74
2022/01/16 08:02:08;;;;;;;;;56.00;46.25;;;;;14.16;40.57;102225.09;146606;599;46020;-73
2022/01/16 08:05:01;;;;;;;;;54.50;44.50;;;;;13.89;40.68;102232.12;146604;707;46010;-71
2022/01/16 08:07:53;;;;;;;;;56.50;45.25;;;;;13.74;40.83;102219.94;146609;595;45021;-71
2022/01/16 08:10:45;;;;;;;;;49.50;38.75;;;;;13.77;40.02;102216.59;146606;590;46010;-70
2022/01/16 08:13:38;;;;;;;;;44.25;37.00;;;;;13.84;40.33;102232.75;146605;581;46008;-71
2022/01/16 08:16:30;;;;;;;;;52.50;41.00;;;;;13.96;40.70;102242.16;146605;614;46012;-68
2022/01/16 08:19:23;;;;;;;;;52.00;42.25;;;;;14.07;39.60;102241.06;146606;759;46020;-81
2022/01/16 08:22:15;;;;;;;;;43.25;37.25;;;;;14.15;37.79;102234.63;146600;570;46016;-67
2022/01/16 08:25:09;;;;;;;;;43.50;34.00;;;;;14.17;38.18;102230.37;146602;608;46008;-69
2022/01/16 08:28:01;;;;;;;;;39.00;32.75;;;;;14.19;39.51;102236.59;146598;637;46012;-76
2022/01/16 08:30:53;;;;;;;;;38.75;33.75;;;;;14.28;39.51;102236.25;146604;575;46020;-83
2022/01/16 08:33:45;;;;;;;;;42.00;34.25;;;;;14.43;39.22;102242.41;146598;592;46016;-74
2022/01/16 08:36:38;;;;;;;;;35.25;32.00;;;;;14.59;39.03;102231.19;146603;570;46021;-79
2022/01/16 08:39:30;;;;;;;;;30.75;27.25;;;;;14.74;39.08;102239.94;146604;580;45041;-75
2022/01/16 08:42:22;;;;;;;;;32.50;28.50;;;;;14.87;38.24;102232.81;146601;576;46020;-77
2022/01/16 08:45:15;;;;;;;;;21.00;19.75;;;;;14.96;38.99;102241.19;146599;603;46017;-77
2022/01/16 08:48:09;;;;;;;;;25.50;24.00;;;;;15.11;39.80;102239.44;146604;583;46008;-75
2022/01/16 08:51:01;;;;;;;;;29.50;26.25;;;;;15.31;38.42;102234.44;146599;597;46016;-79
2022/01/16 08:53:54;;;;;;;;;31.00;27.25;;;;;15.39;38.86;102234.06;146605;607;46008;-79
2022/01/16 08:56:46;;;;;;;;;27.50;22.75;;;;;15.47;39.26;102231.84;146599;569;46010;-75
2022/01/16 08:59:38;;;;;;;;;29.00;24.75;;;;;15.50;39.95;102231.13;146602;615;46009;-73
2022/01/16 09:02:31;;;;;;;;;20.25;19.00;;;;;15.59;39.88;102224.69;146600;666;46016;-75
2022/01/16 09:05:23;;;;;;;;;19.00;17.00;;;;;15.69;39.61;102227.00;146605;605;46008;-77
2022/01/16 09:08:15;;;;;;;;;22.25;20.50;;;;;15.77;38.70;102229.16;146599;592;46010;-79
2022/01/16 09:11:08;;;;;;;;;29.25;22.50;;;;;15.77;38.77;102221.31;146603;564;46020;-80
2022/01/16 09:14:00;;;;;;;;;24.75;20.00;;;;;15.69;39.35;102218.28;146599;577;46017;-79
2022/01/16 09:16:52;;;;;;;;;19.00;18.00;;;;;15.66;39.73;102218.97;146602;698;46008;-79
2022/01/16 09:19:46;;;;;;;;;23.00;21.75;;;;;15.56;40.12;102221.00;146599;609;47911;-78
2022/01/16 09:22:39;;;;;;;;;20.00;18.75;;;;;15.42;40.07;102217.63;146602;566;46008;-80
2022/01/16 09:25:32;;;;;;;;;20.00;18.00;;;;;15.34;40.79;102219.81;146601;579;46016;-80
2022/01/16 09:28:24;;;;;;;;;20.50;19.25;;;;;15.11;39.00;102218.53;146603;614;46008;-77
2022/01/16 09:31:16;;;;;;;;;26.25;23.25;;;;;14.75;40.28;102209.50;146600;571;46016;-76
2022/01/16 09:34:09;;;;;;;;;19.75;18.00;;;;;14.44;41.08;102211.97;146602;587;46020;-75
2022/01/16 09:37:07;;;;;;;;;16.50;16.00;;;;;14.14;41.76;102217.16;146599;591;46011;-75
2022/01/16 09:39:59;;;;;;;;;18.75;18.25;;;;;12.98;41.67;102053.59;146601;768;46012;-76
2022/01/16 09:42:52;;;;;;;;;27.50;24.25;;;;;13.70;43.13;102210.13;146599;593;46016;-75
2022/01/16 09:45:44;;;;;;;;;18.50;16.50;;;;;13.55;43.26;102206.56;146604;687;46020;-74
2022/01/16 09:48:37;;;;;;;;;17.50;15.50;;;;;13.37;43.98;102211.53;146600;563;46016;-75
2022/01/16 09:51:29;;;;;;;;;15.25;14.50;;;;;13.26;44.71;102202.13;146605;646;46008;-75
2022/01/16 09:54:23;;;;;;;;;22.75;20.75;;;;;13.22;44.98;102203.59;146601;610;45911;-75
2022/01/16 09:57:16;;;;;;;;;21.00;17.50;;;;;13.18;45.05;102199.00;146607;599;45021;-74
2022/01/16 10:00:12;;;;;;;;;17.75;17.75;;;;;13.12;45.78;102191.69;146602;569;46010;-74
2022/01/16 10:03:05;;;;;;;;;18.75;15.25;;;;;13.10;45.34;102195.00;146604;596;46020;-74
2022/01/16 10:06:21;;;;;;;;;15.50;14.75;;;;;13.03;45.74;102192.81;146604;578;46911;-74
2022/01/16 10:09:19;;;;;;;;;17.25;16.00;;;;;13.02;46.05;102197.13;146606;600;46912;-75
2022/01/16 10:12:16;;;;;;;;;17.50;14.25;;;;;13.11;45.71;102194.19;146603;570;46011;-75
2022/01/16 10:15:26;;;;;;;;;18.75;17.50;;;;;13.16;44.47;102190.19;146605;577;46008;-75
2022/01/16 10:18:18;;;;;;;;;18.50;17.00;;;;;13.03;44.10;102193.69;146602;578;46016;-74
2022/01/16 10:21:12;;;;;;;;;15.25;15.00;;;;;12.88;44.38;102187.50;146608;574;46021;-76
2022/01/16 10:24:22;;;;;;;;;16.25;15.25;;;;;12.83;43.76;102192.37;146606;591;46016;-75
2022/01/16 10:27:21;;;;;;;;;17.50;16.50;;;;;12.78;43.64;102196.41;146609;701;46008;-76
2022/01/16 10:30:18;;;;;;;;;15.50;13.25;;;;;12.87;44.31;102191.81;146608;575;46016;-75
2022/01/16 10:33:17;;;;;;;;;18.75;15.25;;;;;13.01;44.39;102190.09;146607;611;46020;-75
2022/01/16 10:36:09;;;;;;;;;20.75;20.00;;;;;13.18;44.70;102191.19;146600;584;46010;-76
2022/01/16 10:39:15;;;;;;;;;18.00;18.00;;;;;13.36;41.94;102192.41;146605;599;46020;-75
2022/01/16 10:42:19;;;;;;;;;23.00;18.25;;;;;13.55;42.68;102186.63;146602;570;46016;-76
2022/01/16 10:45:18;;;;;;;;;48.00;38.75;;;;;13.69;40.78;102184.88;146605;604;46020;-76
2022/01/16 10:48:12;;;;;;;;;12.50;12.50;;;;;13.72;39.83;102192.87;146609;619;46016;-76
2022/01/16 10:51:04;;;;;;;;;22.50;19.50;;;;;13.83;40.72;102186.63;146601;615;46008;-76
2022/01/16 10:53:56;;;;;;;;;30.00;26.50;;;;;14.05;40.26;102188.84;146603;650;46016;-77
2022/01/16 10:56:49;;;;;;;;;16.75;13.75;;;;;14.29;39.21;102186.75;146607;594;45021;-77
2022/01/16 10:59:41;;;;;;;;;16.50;14.50;;;;;14.50;38.99;102179.31;146603;573;46010;-76
2022/01/16 11:02:34;;;;;;;;;15.50;14.50;;;;;14.72;38.73;102176.25;146604;573;46020;-76
2022/01/16 11:05:28;;;;;;;;;11.75;10.00;;;;;14.82;40.14;102166.34;146610;586;46017;-77
2022/01/16 11:08:23;;;;;;;;;16.75;13.00;;;;;14.89;39.38;102166.81;146610;580;46008;-77
2022/01/16 11:11:15;;;;;;;;;15.00;12.75;;;;;14.91;39.60;102161.66;146608;607;46911;-77
2022/01/16 11:14:07;;;;;;;;;17.00;15.00;;;;;14.90;40.13;102159.88;146601;584;46008;-76
2022/01/16 11:17:02;;;;;;;;;13.75;11.50;;;;;14.76;38.48;102164.28;146608;612;46016;-76
2022/01/16 11:19:54;;;;;;;;;17.50;16.25;;;;;14.73;40.48;102161.50;146605;570;46008;-76
2022/01/16 11:23:03;;;;;;;;;17.25;15.25;;;;;14.83;40.71;102157.69;146604;569;46911;-76
2022/01/16 11:25:58;;;;;;;;;14.50;11.75;;;;;14.95;41.54;102164.53;146606;661;46012;-77
2022/01/16 11:28:52;;;;;;;;;15.25;13.25;;;;;15.06;40.86;102153.78;146599;586;46010;-74
2022/01/16 11:31:45;;;;;;;;;17.75;13.75;;;;;15.09;40.27;102149.63;146609;588;46020;-77
2022/01/16 11:34:37;;;;;;;;;21.50;16.00;;;;;15.15;40.38;102143.84;146601;583;46017;-76
2022/01/16 11:37:31;;;;;;;;;14.00;12.00;;;;;15.23;39.50;102140.84;146609;565;46020;-77
2022/01/16 11:40:45;;;;;;;;;15.75;14.25;;;;;15.34;39.46;102150.97;146602;567;46011;-76
2022/01/16 11:43:39;;;;;;;;;14.25;13.50;;;;;15.28;38.76;102141.06;146604;622;46008;-78
2022/01/16 11:46:36;;;;;;;;;18.00;16.50;;;;;15.24;40.02;102145.25;146603;605;46911;-76
2022/01/16 11:49:46;;;;;;;;;14.50;14.50;;;;;15.23;40.88;102147.75;146600;588;46008;-76
2022/01/16 11:52:44;;;;;;;;;18.75;17.25;;;;;15.15;40.36;102149.97;146603;652;46016;-74
2022/01/16 11:55:39;;;;;;;;;13.00;13.00;;;;;15.12;39.78;102149.78;146607;602;46008;-76
2022/01/16 11:58:31;;;;;;;;;18.00;17.25;;;;;15.01;39.41;102154.44;146602;633;46016;-75
2022/01/16 12:01:49;;;;;;;;;15.75;14.25;;;;;14.85;38.19;102153.47;146607;617;46008;-75
2022/01/16 12:05:05;;;;;;;;;19.50;16.25;;;;;13.98;41.50;101983.22;146603;593;46010;-77
2022/01/16 12:08:03;;;;;;;;;21.50;19.50;;;;;14.84;40.32;102141.22;146604;660;46022;-75
2022/01/16 12:10:57;;;;;;;;;17.75;14.75;;;;;14.76;39.00;102141.69;146605;662;46017;-76
2022/01/16 12:13:53;;;;;;;;;15.25;14.25;;;;;14.77;41.66;102140.00;146605;564;46020;-77
2022/01/16 12:16:47;;;;;;;;;16.25;16.25;;;;;14.84;40.84;102138.63;146602;588;46013;-76
2022/01/16 12:19:46;;;;;;;;;16.50;14.25;;;;;14.90;40.50;102141.56;146608;609;46020;-75
2022/01/16 12:23:11;;;;;;;;;48.75;39.25;;;;;15.01;41.21;102141.38;146604;578;46010;-76
2022/01/16 12:26:03;;;;;;;;;18.25;16.00;;;;;15.28;40.01;102134.97;146604;590;46021;-77
2022/01/16 12:29:02;;;;;;;;;19.50;18.00;;;;;15.45;40.95;102131.53;146606;601;46016;-76
2022/01/16 12:31:54;;;;;;;;;22.50;20.00;;;;;15.60;41.26;102129.72;146603;593;46021;-72
2022/01/16 12:34:47;;;;;;;;;14.75;12.25;;;;;15.66;39.97;102140.53;146604;648;46016;-75
2022/01/16 12:37:46;;;;;;;;;15.00;12.50;;;;;15.70;40.51;102129.47;146603;624;46020;-74
2022/01/16 12:40:39;;;;;;;;;19.00;15.00;;;;;15.71;40.30;102138.19;146605;597;46017;-75
2022/01/16 12:43:33;;;;;;;;;18.00;16.50;;;;;15.70;39.07;102137.31;146605;580;45020;-76
2022/01/16 12:46:35;;;;;;;;;19.75;16.50;;;;;15.69;40.16;102145.94;146605;584;46017;-76
2022/01/16 12:49:29;;;;;;;;;18.50;16.50;;;;;15.76;39.93;102141.03;146604;604;45025;-76
2022/01/16 12:52:22;;;;;;;;;16.75;12.75;;;;;15.85;39.32;102141.53;146605;625;46010;-75
2022/01/16 12:55:15;;;;;;;;;19.25;18.25;;;;;15.97;40.04;102136.94;146606;658;46021;-74
2022/01/16 12:58:20;;;;;;;;;22.50;19.50;;;;;16.07;40.48;102138.31;146598;566;47911;-75
2022/01/16 13:01:13;;;;;;;;;20.50;20.00;;;;;16.12;39.65;102136.81;146605;667;46021;-75
2022/01/16 13:04:05;;;;;;;;;18.75;16.25;;;;;16.14;39.39;102140.44;146602;567;46016;-75
2022/01/16 13:07:13;;;;;;;;;17.50;15.00;;;;;16.17;41.96;102141.47;146606;577;46020;-73
2022/01/16 13:10:05;;;;;;;;;16.25;16.25;;;;;16.17;39.65;102133.62;146606;624;46010;-76
2022/01/16 13:12:57;;;;;;;;;16.50;14.00;;;;;16.12;40.22;102127.25;146610;566;46020;-75
2022/01/16 13:15:49;;;;;;;;;18.50;16.25;;;;;16.19;38.61;102127.56;146603;572;45911;-74
2022/01/16 13:19:04;;;;;;;;;16.75;15.00;;;;;16.21;41.37;102128.56;146606;574;46021;-73
2022/01/16 13:22:11;;;;;;;;;14.25;14.00;;;;;16.01;39.95;102094.44;146603;657;46016;-75
2022/01/16 13:25:07;;;;;;;;;14.25;12.75;;;;;16.28;37.91;102133.28;146606;663;46008;-74
2022/01/16 13:28:00;;;;;;;;;19.50;15.00;;;;;16.29;39.38;102127.19;146603;592;46016;-75
2022/01/16 13:30:56;;;;;;;;;16.50;16.00;;;;;16.41;39.24;102130.44;146604;564;46020;-75
2022/01/16 13:33:48;;;;;;;;;13.50;13.50;;;;;16.53;37.99;102138.91;146604;583;46016;-74
2022/01/16 13:36:41;;;;;;;;;18.75;15.25;;;;;16.66;38.64;102137.78;146602;599;46020;-75
2022/01/16 13:39:41;;;;;;;;;16.75;13.50;;;;;16.79;40.55;102139.31;146600;707;46016;-76
2022/01/16 13:42:53;;;;;;;;;17.25;16.25;;;;;16.93;40.06;102130.41;146610;660;46008;-75
2022/01/16 13:45:50;;;;;;;;;17.00;16.00;;;;;16.97;39.56;102137.56;146604;588;46017;-74
2022/01/16 13:48:42;;;;;;;;;14.50;13.00;;;;;16.94;37.84;102137.44;146610;569;46020;-75
2022/01/16 13:51:34;;;;;;;;;14.50;13.75;;;;;16.87;37.35;102132.72;146605;563;46016;-76
2022/01/16 13:54:35;;;;;;;;;15.00;14.25;;;;;16.74;39.98;102139.06;146602;564;46021;-74